createdAt,value
2023-11-24T00:03:34.672Z,0.03
2023-11-24T00:07:34.399Z,0.03
2023-11-24T00:11:33.854Z,0.03
2023-11-24T00:15:33.763Z,0.03
2023-11-24T00:19:33.952Z,0.03
2023-11-24T00:23:34.118Z,0.03
2023-11-24T00:27:33.428Z,0.03
2023-11-24T00:31:34.216Z,0.03
2023-11-24T00:35:35.138Z,0.03
2023-11-24T00:39:33.494Z,0.03
2023-11-24T00:43:33.892Z,0.03
2023-11-24T00:47:34.455Z,0.03
2023-11-24T00:51:34.445Z,0.03
2023-11-24T00:55:33.559Z,0.03
2023-11-24T00:59:33.934Z,0.03
2023-11-24T01:03:34.993Z,0.03
2023-11-24T01:07:33.670Z,0.03
2023-11-24T01:11:33.970Z,0.03
2023-11-24T01:15:34.508Z,0.03
2023-11-24T01:19:33.868Z,0.03
2023-11-24T01:23:34.154Z,0.03
2023-11-24T01:27:33.589Z,0.03
2023-11-24T01:31:33.966Z,0.03
2023-11-24T01:35:34.355Z,0.03
2023-11-24T01:39:34.237Z,0.03
2023-11-24T01:43:33.977Z,0.03
2023-11-24T01:47:34.587Z,0.03
2023-11-24T01:51:34.344Z,0.03
2023-11-24T01:55:33.610Z,0.03
2023-11-24T01:59:33.908Z,0.03
2023-11-24T02:03:35.041Z,0.03
2023-11-24T02:07:34.136Z,0.03
2023-11-24T02:11:34.739Z,0.03
2023-11-24T02:15:34.199Z,0.03
2023-11-24T02:19:34.280Z,0.03
2023-11-24T02:23:34.462Z,0.03
2023-11-24T02:27:33.666Z,0.03
2023-11-24T02:31:34.546Z,0.03
2023-11-24T02:35:34.379Z,0.03
2023-11-24T02:39:33.668Z,0.03
2023-11-24T02:43:33.977Z,0.03
2023-11-24T02:47:34.456Z,0.03
2023-11-24T02:51:33.701Z,0.03
2023-11-24T02:55:34.156Z,0.03
2023-11-24T02:59:33.594Z,0.03
2023-11-24T03:03:34.549Z,0.03
2023-11-24T03:07:34.287Z,0.03
2023-11-24T03:11:33.662Z,0.03
2023-11-24T03:15:34.085Z,0.03
2023-11-24T03:19:34.526Z,0.03
2023-11-24T03:23:33.622Z,0.03
2023-11-24T03:27:34.104Z,0.03
2023-11-24T03:31:34.033Z,0.03
2023-11-24T03:35:34.656Z,0.03
2023-11-24T03:39:34.382Z,0.03
2023-11-24T03:43:34.165Z,0.03
2023-11-24T03:47:34.542Z,0.03
2023-11-24T03:51:34.441Z,0.03
2023-11-24T03:55:33.849Z,0.03
2023-11-24T03:59:33.943Z,0.03
2023-11-24T04:03:34.971Z,0.03
2023-11-24T04:07:34.614Z,0.03
2023-11-24T04:11:33.823Z,0.03
2023-11-24T04:15:34.377Z,0.03
2023-11-24T04:19:34.576Z,0.03
2023-11-24T04:23:33.720Z,0.03
2023-11-24T04:27:33.933Z,0.03
2023-11-24T04:31:34.462Z,0.03
2023-11-24T04:35:34.722Z,0.03
2023-11-24T04:39:34.112Z,0.03
2023-11-24T04:43:34.290Z,0.03
2023-11-24T04:47:33.956Z,0.03
2023-11-24T04:51:34.223Z,0.03
2023-11-24T04:55:34.215Z,0.03
2023-11-24T04:59:33.461Z,0.03
2023-11-24T05:03:34.572Z,0.03
2023-11-24T05:07:34.352Z,0.03
2023-11-24T05:11:34.644Z,0.03
2023-11-24T05:15:33.695Z,0.03
2023-11-24T05:19:34.208Z,0.03
2023-11-24T05:23:33.734Z,0.03
2023-11-24T05:27:36.709Z,0.03
2023-11-24T05:31:34.726Z,0.03
2023-11-24T05:35:34.420Z,0.03
2023-11-24T05:39:33.574Z,0.03
2023-11-24T05:43:33.998Z,0.03
2023-11-24T05:47:34.204Z,0.03
2023-11-24T05:51:34.085Z,0.03
2023-11-24T05:55:34.545Z,0.03
2023-11-24T05:59:33.680Z,0.03
2023-11-24T06:03:34.215Z,0.03
2023-11-24T06:07:34.579Z,0.03
2023-11-24T06:11:33.783Z,0.03
2023-11-24T06:15:33.992Z,0.03
2023-11-24T06:19:37.201Z,0.03
2023-11-24T06:23:34.054Z,0.03
2023-11-24T06:27:34.062Z,0.03
2023-11-24T06:31:37.798Z,0.03
2023-11-24T06:35:34.240Z,0.03
2023-11-24T06:39:33.937Z,0.03
2023-11-24T06:43:34.294Z,0.03
2023-11-24T06:47:34.600Z,0.03
2023-11-24T06:51:34.065Z,0.03
2023-11-24T06:55:34.092Z,0.03
2023-11-24T06:59:34.178Z,0.03
2023-11-24T07:03:35.349Z,0.03
2023-11-24T07:07:34.478Z,0.03
2023-11-24T07:11:36.043Z,0.03
2023-11-24T07:15:33.449Z,0.03
2023-11-24T07:19:34.934Z,0.03
2023-11-24T07:23:33.555Z,0.03
2023-11-24T07:27:33.574Z,0.03
2023-11-24T07:31:34.234Z,0.03
2023-11-24T07:35:35.202Z,0.03
2023-11-24T07:39:34.120Z,0.03
2023-11-24T07:43:33.925Z,0.03
2023-11-24T07:47:36.000Z,0.03
2023-11-24T07:51:34.073Z,0.03
2023-11-24T07:55:34.392Z,0.03
2023-11-24T07:59:33.513Z,0.03
2023-11-24T08:03:34.640Z,0.03
2023-11-24T08:07:34.564Z,0.03
2023-11-24T08:11:33.755Z,0.03
2023-11-24T08:15:34.463Z,0.03
2023-11-24T08:19:37.439Z,0.03
2023-11-24T08:23:33.538Z,0.03
2023-11-24T08:27:35.233Z,0.03
2023-11-24T08:31:34.524Z,0.03
2023-11-24T08:35:34.109Z,0.03
2023-11-24T08:39:35.474Z,0.03
2023-11-24T08:43:33.879Z,0.03
2023-11-24T08:47:34.719Z,0.03
2023-11-24T08:51:34.629Z,0.03
2023-11-24T08:55:34.414Z,0.03
2023-11-24T08:59:34.394Z,0.03
2023-11-24T09:03:34.619Z,0.03
2023-11-24T09:07:34.369Z,0.03
2023-11-24T09:11:34.398Z,0.03
2023-11-24T09:15:34.464Z,0.03
2023-11-24T09:19:36.073Z,0.03
2023-11-24T09:23:33.521Z,0.03
2023-11-24T09:27:33.642Z,0.03
2023-11-24T09:31:34.942Z,0.03
2023-11-24T09:35:37.579Z,0.03
2023-11-24T09:39:34.063Z,0.03
2023-11-24T09:43:38.009Z,0.03
2023-11-24T09:47:52.405Z,0.03
2023-11-24T09:51:36.451Z,0.03
2023-11-24T09:55:37.273Z,0.03
2023-11-24T09:59:33.871Z,0.03
2023-11-24T10:03:38.374Z,0.03
2023-11-24T10:07:34.664Z,0.03
2023-11-24T10:11:33.841Z,0.03
2023-11-24T10:15:34.080Z,0.03
2023-11-24T10:19:35.095Z,0.03
2023-11-24T10:23:34.494Z,0.03
2023-11-24T10:42:46.976Z,0.03
2023-11-24T10:43:55.325Z,0.03
2023-11-24T10:45:34.472Z,0.03
2023-11-24T10:47:37.370Z,0.03
2023-11-24T10:49:33.928Z,0.03
2023-11-24T10:51:37.605Z,0.03
2023-11-24T10:53:34.192Z,0.03
2023-11-24T10:55:33.939Z,0.03
2023-11-24T10:57:34.074Z,0.03
2023-11-24T10:59:33.634Z,0.03
2023-11-24T11:01:37.258Z,0.03
2023-11-24T11:03:34.384Z,0.03
2023-11-24T11:05:34.754Z,0.03
2023-11-24T11:07:35.085Z,0.03
2023-11-24T11:09:33.600Z,0.03
2023-11-24T11:11:35.559Z,0.03
2023-11-24T11:13:34.124Z,0.03
2023-11-24T11:15:37.323Z,0.03
2023-11-24T11:17:34.025Z,0.03
2023-11-24T11:19:34.508Z,0.03
2023-11-24T11:21:36.443Z,0.03
2023-11-24T11:23:33.705Z,0.03
2023-11-24T11:25:34.333Z,0.03
2023-11-24T11:27:34.031Z,0.03
2023-11-24T11:29:34.080Z,0.03
2023-11-24T11:31:34.896Z,0.03
2023-11-24T11:33:36.263Z,0.03
2023-11-24T11:35:34.106Z,0.03
2023-11-24T11:37:33.524Z,0.03
2023-11-24T11:39:36.104Z,0.03
2023-11-24T11:41:34.320Z,0.03
2023-11-24T11:43:35.335Z,0.03
2023-11-24T11:45:37.063Z,0.03
2023-11-24T11:47:34.977Z,0.03
2023-11-24T11:49:35.964Z,0.03
2023-11-24T11:51:33.770Z,0.03
2023-11-24T11:53:35.319Z,0.03
2023-11-24T11:55:37.137Z,0.03
2023-11-24T11:57:33.209Z,0.03
2023-11-24T11:59:34.194Z,1.71
2023-11-24T12:01:34.256Z,1.71
2023-11-24T12:03:40.122Z,1.71
2023-11-24T12:05:34.100Z,0.34
2023-11-24T12:07:34.191Z,0.34
2023-11-24T12:09:34.075Z,0.34
2023-11-24T12:11:33.924Z,0.14
2023-11-24T12:13:35.742Z,0.14
2023-11-24T12:15:33.740Z,0.14
2023-11-24T12:17:35.542Z,88.93
2023-11-24T12:19:33.872Z,88.93
2023-11-24T12:21:34.415Z,88.93
2023-11-24T12:23:34.173Z,52.41
2023-11-24T12:25:52.431Z,52.41
2023-11-24T12:27:34.096Z,52.41
2023-11-24T12:29:34.098Z,0.04
2023-11-24T12:31:33.755Z,0.04
2023-11-24T12:33:34.478Z,0.04
2023-11-24T12:35:33.960Z,0.04
2023-11-24T12:37:35.214Z,0.04
2023-11-24T12:39:33.918Z,0.04
2023-11-24T12:41:33.834Z,0.04
2023-11-24T12:43:34.409Z,0.04
2023-11-24T12:45:35.547Z,0.04
2023-11-24T12:49:34.978Z,0.04
2023-11-24T12:51:35.494Z,0.04
2023-11-24T12:53:34.411Z,0.04
2023-11-24T12:55:35.926Z,0.04
2023-11-24T12:57:33.334Z,0.04
2023-11-24T12:59:34.142Z,0.04
2023-11-24T13:01:38.269Z,0.04
2023-11-24T13:03:33.640Z,0.04
2023-11-24T13:05:38.200Z,0.04
2023-11-24T13:07:34.056Z,0.04
2023-11-24T13:09:33.957Z,0.04
2023-11-24T13:11:34.329Z,0.04
2023-11-24T13:13:48.689Z,0.04
2023-11-24T13:15:34.417Z,0.04
2023-11-24T13:17:34.484Z,0.04
2023-11-24T13:19:36.875Z,0.04
2023-11-24T13:21:33.875Z,0.04
2023-11-24T13:23:34.572Z,0.04
2023-11-24T13:25:37.093Z,0.04
2023-11-24T13:27:33.418Z,0.04
2023-11-24T13:29:34.248Z,0.04
2023-11-24T13:31:36.372Z,0.04
2023-11-24T13:33:34.408Z,0.04
2023-11-24T13:35:35.182Z,143.37
2023-11-24T13:37:34.293Z,143.37
2023-11-24T13:39:33.776Z,143.37
2023-11-24T13:41:34.499Z,0.08
2023-11-24T13:43:34.618Z,0.08
2023-11-24T13:45:36.856Z,0.08
2023-11-24T13:47:35.198Z,52.41
2023-11-24T13:49:34.038Z,52.41
2023-11-24T13:51:37.744Z,52.41
2023-11-24T13:53:34.058Z,36.19
2023-11-24T13:55:34.038Z,36.19
2023-11-24T13:57:34.106Z,36.19
2023-11-24T13:59:33.964Z,0.02
2023-11-24T14:01:37.886Z,0.02
2023-11-24T14:03:35.933Z,0.02
2023-11-24T14:05:36.898Z,22.46
2023-11-24T14:07:34.472Z,22.46
2023-11-24T14:09:33.859Z,22.46
2023-11-24T14:11:34.972Z,0.02
2023-11-24T14:13:34.277Z,0.02
2023-11-24T14:15:34.154Z,0.02
2023-11-24T14:17:34.209Z,0.02
2023-11-24T14:19:34.250Z,0.02
2023-11-24T14:21:33.930Z,0.02
2023-11-24T14:23:37.279Z,0.02
2023-11-24T14:25:34.144Z,0.02
2023-11-24T14:27:33.495Z,0.02
2023-11-24T14:29:35.841Z,0.02
2023-11-24T14:31:34.245Z,0.02
2023-11-24T14:33:33.994Z,0.02
2023-11-24T14:35:35.227Z,0.02
2023-11-24T14:37:34.005Z,0.02
2023-11-24T14:39:34.394Z,0.02
2023-11-24T14:41:35.256Z,0.02
2023-11-24T14:43:33.598Z,0.02
2023-11-24T14:45:34.256Z,0.02
2023-11-24T14:47:34.455Z,0.02
2023-11-24T14:49:34.335Z,0.02
2023-11-24T14:51:33.761Z,0.02
2023-11-24T14:53:34.678Z,0.02
2023-11-24T14:55:34.280Z,0.02
2023-11-24T14:57:33.919Z,0.02
2023-11-24T14:59:35.827Z,0.02
2023-11-24T15:01:36.626Z,0.02
2023-11-24T15:03:35.395Z,0.02
2023-11-24T15:05:35.414Z,0.02
2023-11-24T15:07:33.789Z,0.02
2023-11-24T15:09:33.990Z,0.02
2023-11-24T15:11:35.083Z,0.02
2023-11-24T15:13:34.752Z,0.02
2023-11-24T15:15:34.022Z,0.02
2023-11-24T15:17:34.469Z,0.02
2023-11-24T15:19:34.266Z,0.02
2023-11-24T15:21:48.209Z,0.02
2023-11-24T15:23:36.931Z,0.02
2023-11-24T15:25:34.221Z,0.02
2023-11-24T15:27:33.445Z,0.02
2023-11-24T15:29:34.577Z,0.02
2023-11-24T15:31:34.313Z,0.02
2023-11-24T15:33:34.373Z,0.02
2023-11-24T15:35:34.350Z,0.02
2023-11-24T15:37:34.569Z,0.02
2023-11-24T15:39:33.742Z,0.02
2023-11-24T15:41:35.060Z,0.02
2023-11-24T15:43:33.931Z,0.02
2023-11-24T15:45:34.267Z,0.02
2023-11-24T15:47:38.517Z,0.02
2023-11-24T15:49:40.294Z,0.02
2023-11-24T15:51:34.124Z,0.02
2023-11-24T15:53:35.004Z,0.02
2023-11-24T15:55:34.518Z,0.02
2023-11-24T15:57:33.706Z,0.02
2023-11-24T15:59:36.547Z,0.02
2023-11-24T16:01:36.586Z,0.02
2023-11-24T16:03:35.833Z,0.02
2023-11-24T16:05:34.550Z,0.02
2023-11-24T16:07:33.977Z,0.02
2023-11-24T16:09:34.066Z,0.02
2023-11-24T16:11:35.034Z,0.02
2023-11-24T16:13:35.070Z,0.02
2023-11-24T16:15:34.166Z,0.02
2023-11-24T16:17:34.672Z,0.02
2023-11-24T16:19:45.253Z,0.02
2023-11-24T16:21:33.803Z,0.02
2023-11-24T16:23:37.358Z,0.02
2023-11-24T16:25:33.676Z,0.02
2023-11-24T16:27:33.328Z,0.02
2023-11-24T16:29:34.171Z,0.02
2023-11-24T16:31:34.221Z,0.02
2023-11-24T16:33:34.605Z,0.02
2023-11-24T16:35:33.810Z,0.02
2023-11-24T16:37:34.280Z,0.02
2023-11-24T16:39:33.970Z,0.02
2023-11-24T16:41:34.032Z,0.02
2023-11-24T16:43:35.531Z,0.02
2023-11-24T16:45:33.812Z,0.02
2023-11-24T16:47:34.937Z,0.02
2023-11-24T16:49:34.375Z,0.02
2023-11-24T16:51:33.928Z,0.02
2023-11-24T16:53:34.401Z,0.02
2023-11-24T16:55:34.085Z,0.02
2023-11-24T16:57:34.163Z,0.02
2023-11-24T16:59:34.099Z,0.02
2023-11-24T17:01:37.012Z,0.02
2023-11-24T17:03:34.619Z,0.02
2023-11-24T17:05:34.785Z,0.02
2023-11-24T17:07:33.741Z,0.02
2023-11-24T17:09:34.209Z,0.02
2023-11-24T17:11:35.170Z,0.02
2023-11-24T17:13:33.669Z,0.02
2023-11-24T17:15:33.950Z,0.02
2023-11-24T17:17:34.763Z,0.02
2023-11-24T17:19:34.949Z,0.02
2023-11-24T17:21:35.299Z,0.02
2023-11-24T17:23:33.932Z,0.02
2023-11-24T17:25:48.365Z,0.02
2023-11-24T17:27:33.846Z,0.02
2023-11-24T17:29:33.745Z,0.02
2023-11-24T17:31:38.262Z,0.02
2023-11-24T17:33:33.946Z,0.02
2023-11-24T17:35:35.359Z,0.02
2023-11-24T17:37:34.084Z,0.02
2023-11-24T17:39:33.880Z,0.02
2023-11-24T17:41:34.291Z,0.02
2023-11-24T17:43:34.037Z,0.02
2023-11-24T17:45:33.960Z,0.02
2023-11-24T17:47:37.782Z,0.02
2023-11-24T17:49:34.583Z,0.02
2023-11-24T17:51:34.108Z,0.02
2023-11-24T17:53:33.557Z,0.02
2023-11-24T17:55:34.174Z,0.02
2023-11-24T17:57:33.374Z,0.02
2023-11-24T17:59:34.464Z,0.02
2023-11-24T18:01:35.849Z,0.02
2023-11-24T18:03:34.171Z,0.02
2023-11-24T18:05:34.233Z,0.02
2023-11-24T18:07:35.810Z,0.02
2023-11-24T18:09:34.323Z,0.02
2023-11-24T18:11:33.969Z,0.02
2023-11-24T18:13:34.600Z,0.02
2023-11-24T18:15:34.129Z,0.02
2023-11-24T18:17:34.349Z,0.02
2023-11-24T18:19:34.310Z,0.02
2023-11-24T18:21:36.060Z,0.02
2023-11-24T18:23:34.458Z,0.02
2023-11-24T18:25:36.416Z,0.02
2023-11-24T18:27:33.343Z,0.02
2023-11-24T18:29:33.962Z,0.02
2023-11-24T18:31:34.262Z,0.02
2023-11-24T18:33:38.066Z,0.02
2023-11-24T18:35:34.292Z,0.02
2023-11-24T18:37:34.353Z,0.02
2023-11-24T18:39:34.152Z,0.02
2023-11-24T18:41:36.787Z,0.02
2023-11-24T18:43:48.622Z,0.02
2023-11-24T18:45:34.249Z,0.02
2023-11-24T18:47:38.730Z,0.02
2023-11-24T18:49:34.473Z,0.02
2023-11-24T18:51:33.879Z,0.02
2023-11-24T18:53:34.499Z,0.02
2023-11-24T18:55:35.901Z,0.02
2023-11-24T18:57:33.502Z,0.02
2023-11-24T18:59:34.149Z,0.02
2023-11-24T19:01:38.555Z,0.02
2023-11-24T19:03:34.334Z,0.02
2023-11-24T19:05:35.278Z,0.02
2023-11-24T19:07:33.673Z,0.02
2023-11-24T19:09:33.925Z,0.02
2023-11-24T19:11:34.003Z,0.02
2023-11-24T19:13:34.607Z,0.02
2023-11-24T19:15:33.995Z,0.02
2023-11-24T19:17:33.859Z,0.02
2023-11-24T19:19:34.324Z,0.02
2023-11-24T19:21:36.505Z,0.02
2023-11-24T19:23:33.868Z,0.02
2023-11-24T19:25:34.246Z,0.02
2023-11-24T19:27:33.910Z,0.02
2023-11-24T19:29:46.888Z,0.02
2023-11-24T19:31:34.604Z,0.02
2023-11-24T19:33:34.481Z,0.02
2023-11-24T19:35:33.593Z,0.02
2023-11-24T19:37:34.760Z,0.02
2023-11-24T19:39:33.548Z,0.02
2023-11-24T19:41:34.608Z,0.02
2023-11-24T19:43:34.329Z,0.02
2023-11-24T19:45:33.767Z,0.02
2023-11-24T19:47:33.994Z,0.02
2023-11-24T19:49:34.427Z,0.02
2023-11-24T19:51:33.893Z,0.02
2023-11-24T19:53:34.632Z,0.02
2023-11-24T19:55:33.852Z,0.02
2023-11-24T19:57:33.267Z,0.02
2023-11-24T19:59:34.255Z,0.02
2023-11-24T20:01:41.670Z,0.02
2023-11-24T20:03:35.376Z,0.02
2023-11-24T20:05:33.725Z,0.02
2023-11-24T20:07:36.853Z,0.02
2023-11-24T20:09:33.704Z,0.02
2023-11-24T20:11:34.744Z,0.02
2023-11-24T20:13:34.161Z,0.02
2023-11-24T20:15:33.620Z,0.02
2023-11-24T20:17:35.422Z,0.02
2023-11-24T20:19:33.963Z,0.02
2023-11-24T20:21:38.099Z,0.02
2023-11-24T20:23:33.857Z,0.02
2023-11-24T20:25:33.836Z,0.02
2023-11-24T20:27:34.559Z,0.02
2023-11-24T20:29:34.501Z,0.02
2023-11-24T20:31:34.236Z,0.02
2023-11-24T20:33:33.836Z,0.02
2023-11-24T20:35:35.325Z,0.02
2023-11-24T20:37:36.990Z,0.02
2023-11-24T20:39:35.080Z,0.02
2023-11-24T20:41:35.064Z,0.02
2023-11-24T20:43:34.270Z,0.02
2023-11-24T20:45:33.553Z,0.02
2023-11-24T20:47:34.537Z,0.02
2023-11-24T20:49:34.250Z,0.02
2023-11-24T20:51:37.939Z,0.02
2023-11-24T20:53:34.134Z,0.02
2023-11-24T20:55:34.008Z,0.02
2023-11-24T20:57:33.406Z,0.02
2023-11-24T20:59:34.259Z,0.02
2023-11-24T21:01:38.646Z,0.02
2023-11-24T21:03:34.909Z,0.02
2023-11-24T21:05:34.697Z,0.02
2023-11-24T21:07:37.480Z,0.02
2023-11-24T21:09:34.493Z,0.02
2023-11-24T21:11:34.325Z,0.02
2023-11-24T21:13:33.919Z,0.02
2023-11-24T21:15:34.345Z,0.02
2023-11-24T21:17:34.284Z,0.02
2023-11-24T21:19:34.846Z,0.02
2023-11-24T21:21:33.946Z,0.02
2023-11-24T21:23:34.707Z,0.02
2023-11-24T21:25:34.235Z,0.02
2023-11-24T21:27:36.855Z,0.02
2023-11-24T21:29:34.175Z,0.02
2023-11-24T21:31:34.167Z,0.02
2023-11-24T21:33:35.144Z,0.02
2023-11-24T21:35:34.230Z,0.02
2023-11-24T21:37:33.741Z,0.02
2023-11-24T21:39:34.996Z,0.02
2023-11-24T21:41:34.281Z,0.02
2023-11-24T21:43:34.609Z,0.02
2023-11-24T21:45:36.414Z,0.02
2023-11-24T21:47:35.853Z,0.02
2023-11-24T21:49:34.334Z,0.02
2023-11-24T21:51:33.774Z,0.02
2023-11-24T21:53:34.440Z,0.02
2023-11-24T21:55:35.202Z,0.02
2023-11-24T21:57:34.431Z,0.02
2023-11-24T21:59:34.057Z,0.02
2023-11-24T22:01:37.668Z,0.02
2023-11-24T22:03:38.852Z,0.02
2023-11-24T22:05:34.499Z,0.02
2023-11-24T22:07:35.271Z,0.02
2023-11-24T22:09:33.675Z,0.02
2023-11-24T22:11:33.909Z,0.02
2023-11-24T22:13:35.584Z,0.02
2023-11-24T22:15:33.852Z,0.02
2023-11-24T22:17:35.078Z,0.02
2023-11-24T22:19:34.014Z,0.02
2023-11-24T22:21:37.404Z,0.02
2023-11-24T22:23:33.958Z,0.02
2023-11-24T22:25:34.075Z,0.02
2023-11-24T22:27:34.176Z,0.02
2023-11-24T22:29:34.002Z,0.02
2023-11-24T22:31:37.960Z,0.02
2023-11-24T22:33:34.480Z,0.02
2023-11-24T22:35:33.735Z,0.02
2023-11-24T22:37:37.567Z,0.02
2023-11-24T22:39:33.575Z,0.02
2023-11-24T22:41:34.783Z,0.02
2023-11-24T22:43:34.449Z,0.02
2023-11-24T22:45:37.222Z,0.02
2023-11-24T22:47:35.178Z,0.02
2023-11-24T22:49:34.221Z,0.02
2023-11-24T22:51:34.531Z,0.02
2023-11-24T22:53:34.190Z,0.02
2023-11-24T22:55:33.813Z,0.02
2023-11-24T22:57:34.266Z,0.02
2023-11-24T22:59:33.925Z,0.02
2023-11-24T23:01:34.720Z,0.02
2023-11-24T23:03:36.141Z,0.02
2023-11-24T23:05:34.316Z,0.02
2023-11-24T23:07:34.582Z,0.02
2023-11-24T23:09:34.250Z,0.02
2023-11-24T23:11:33.857Z,0.02
2023-11-24T23:13:34.352Z,0.02
2023-11-24T23:15:33.651Z,0.02
2023-11-24T23:17:33.762Z,0.02
2023-11-24T23:19:34.980Z,0.02
2023-11-24T23:21:35.943Z,0.02
2023-11-24T23:23:51.631Z,0.02
2023-11-24T23:25:33.891Z,0.02
2023-11-24T23:27:33.451Z,0.02
2023-11-24T23:29:34.303Z,0.02
2023-11-24T23:31:39.292Z,0.02
2023-11-24T23:33:50.591Z,0.02
2023-11-24T23:35:34.246Z,0.02
2023-11-24T23:37:34.088Z,0.02
2023-11-24T23:39:34.361Z,0.02
2023-11-24T23:41:34.738Z,0.02
2023-11-24T23:43:34.075Z,0.02
2023-11-24T23:45:33.567Z,0.02
2023-11-24T23:47:35.578Z,0.02
2023-11-24T23:49:34.295Z,0.02
2023-11-24T23:51:40.216Z,0.02
2023-11-24T23:53:34.213Z,0.02
2023-11-24T23:55:33.763Z,0.02
2023-11-24T23:57:33.340Z,0.02
2023-11-24T23:59:34.452Z,0.02
